sensor_id;sensor_type;location;lat;lon;timestamp;pressure;altitude;pressure_sealevel;temperature;humidity
42411;BME280;28056;51.112;0.984;2023-05-09T00:00:35;100622.81;;;11.93;89.91
42411;BME280;28056;51.112;0.984;2023-05-09T00:04:48;100608.75;;;12.01;89.13
42411;BME280;28056;51.112;0.984;2023-05-09T00:07:15;100602.92;;;11.87;89.10
42411;BME280;28056;51.112;0.984;2023-05-09T00:09:43;100598.99;;;12.03;90.31
42411;BME280;28056;51.112;0.984;2023-05-09T00:12:10;100597.54;;;11.52;92.33
42411;BME280;28056;51.112;0.984;2023-05-09T00:14:38;100594.81;;;11.95;90.84
42411;BME280;28056;51.112;0.984;2023-05-09T00:17:06;100588.06;;;11.87;91.62
42411;BME280;28056;51.112;0.984;2023-05-09T00:19:34;100584.91;;;11.61;92.99
42411;BME280;28056;51.112;0.984;2023-05-09T00:22:01;100583.80;;;12.10;91.18
42411;BME280;28056;51.112;0.984;2023-05-09T00:24:29;100577.89;;;11.43;95.88
42411;BME280;28056;51.112;0.984;2023-05-09T00:26:56;100573.83;;;11.14;96.45
42411;BME280;28056;51.112;0.984;2023-05-09T00:29:24;100570.77;;;12.06;94.02
42411;BME280;28056;51.112;0.984;2023-05-09T00:31:51;100567.36;;;11.91;93.54
42411;BME280;28056;51.112;0.984;2023-05-09T00:34:19;100564.92;;;11.97;94.75
42411;BME280;28056;51.112;0.984;2023-05-09T00:36:46;100559.36;;;10.98;98.34
42411;BME280;28056;51.112;0.984;2023-05-09T00:39:14;100559.09;;;11.95;96.32
42411;BME280;28056;51.112;0.984;2023-05-09T00:41:41;100555.09;;;11.21;98.59
42411;BME280;28056;51.112;0.984;2023-05-09T00:44:08;100553.07;;;11.03;99.62
42411;BME280;28056;51.112;0.984;2023-05-09T00:46:35;100548.81;;;11.49;99.09
42411;BME280;28056;51.112;0.984;2023-05-09T00:49:03;100544.88;;;11.30;99.75
42411;BME280;28056;51.112;0.984;2023-05-09T00:51:30;100541.30;;;11.89;99.12
42411;BME280;28056;51.112;0.984;2023-05-09T00:53:58;100538.16;;;11.48;99.94
42411;BME280;28056;51.112;0.984;2023-05-09T00:56:25;100534.14;;;11.35;100.00
42411;BME280;28056;51.112;0.984;2023-05-09T00:58:53;100535.03;;;12.18;98.33
42411;BME280;28056;51.112;0.984;2023-05-09T01:01:21;100532.28;;;11.97;96.39
42411;BME280;28056;51.112;0.984;2023-05-09T01:03:48;100528.22;;;11.53;99.02
42411;BME280;28056;51.112;0.984;2023-05-09T01:06:21;100529.45;;;11.65;100.00
42411;BME280;28056;51.112;0.984;2023-05-09T01:08:57;100523.83;;;11.51;100.00
42411;BME280;28056;51.112;0.984;2023-05-09T01:11:31;100521.25;;;11.28;100.00
42411;BME280;28056;51.112;0.984;2023-05-09T01:14:10;100515.97;;;11.37;100.00
42411;BME280;28056;51.112;0.984;2023-05-09T01:16:43;100513.85;;;11.11;100.00
42411;BME280;28056;51.112;0.984;2023-05-09T01:19:29;100511.64;;;11.63;100.00
42411;BME280;28056;51.112;0.984;2023-05-09T01:21:58;100502.39;;;11.63;100.00
42411;BME280;28056;51.112;0.984;2023-05-09T01:24:43;100495.48;;;12.09;100.00
42411;BME280;28056;51.112;0.984;2023-05-09T01:27:21;100489.14;;;11.63;100.00
42411;BME280;28056;51.112;0.984;2023-05-09T01:29:56;100482.28;;;12.35;100.00
42411;BME280;28056;51.112;0.984;2023-05-09T01:32:30;100472.27;;;11.54;100.00
42411;BME280;28056;51.112;0.984;2023-05-09T01:34:59;100469.49;;;11.50;100.00
42411;BME280;28056;51.112;0.984;2023-05-09T01:37:30;100467.81;;;11.81;100.00
42411;BME280;28056;51.112;0.984;2023-05-09T01:40:02;100466.84;;;11.43;100.00
42411;BME280;28056;51.112;0.984;2023-05-09T01:42:40;100460.97;;;11.92;100.00
42411;BME280;28056;51.112;0.984;2023-05-09T01:45:10;100458.23;;;11.22;100.00
42411;BME280;28056;51.112;0.984;2023-05-09T01:47:39;100452.40;;;11.78;100.00
42411;BME280;28056;51.112;0.984;2023-05-09T01:50:10;100453.97;;;11.65;100.00
42411;BME280;28056;51.112;0.984;2023-05-09T01:52:38;100445.75;;;11.83;100.00
42411;BME280;28056;51.112;0.984;2023-05-09T01:55:06;100447.09;;;11.80;100.00
42411;BME280;28056;51.112;0.984;2023-05-09T01:57:34;100448.15;;;11.64;100.00
42411;BME280;28056;51.112;0.984;2023-05-09T02:00:04;100438.34;;;11.71;100.00
42411;BME280;28056;51.112;0.984;2023-05-09T02:02:33;100437.45;;;11.72;100.00
42411;BME280;28056;51.112;0.984;2023-05-09T02:05:02;100432.07;;;11.35;100.00
42411;BME280;28056;51.112;0.984;2023-05-09T02:07:30;100435.18;;;12.01;100.00
42411;BME280;28056;51.112;0.984;2023-05-09T02:09:59;100430.17;;;11.10;100.00
42411;BME280;28056;51.112;0.984;2023-05-09T02:12:27;100428.24;;;11.11;100.00
42411;BME280;28056;51.112;0.984;2023-05-09T02:14:55;100421.46;;;10.90;100.00
42411;BME280;28056;51.112;0.984;2023-05-09T02:17:22;100418.54;;;11.20;100.00
42411;BME280;28056;51.112;0.984;2023-05-09T02:19:50;100418.98;;;11.27;100.00
42411;BME280;28056;51.112;0.984;2023-05-09T02:22:18;100413.15;;;11.19;100.00
42411;BME280;28056;51.112;0.984;2023-05-09T02:24:45;100407.53;;;11.80;100.00
42411;BME280;28056;51.112;0.984;2023-05-09T02:27:14;100410.88;;;11.82;100.00
42411;BME280;28056;51.112;0.984;2023-05-09T02:29:45;100402.92;;;11.30;100.00
42411;BME280;28056;51.112;0.984;2023-05-09T02:32:16;100403.69;;;12.31;100.00
42411;BME280;28056;51.112;0.984;2023-05-09T02:34:45;100398.76;;;11.33;100.00
42411;BME280;28056;51.112;0.984;2023-05-09T02:37:13;100394.48;;;12.28;100.00
42411;BME280;28056;51.112;0.984;2023-05-09T02:39:41;100394.00;;;11.82;100.00
42411;BME280;28056;51.112;0.984;2023-05-09T02:42:10;100392.39;;;12.11;100.00
42411;BME280;28056;51.112;0.984;2023-05-09T02:44:38;100393.08;;;12.18;100.00
42411;BME280;28056;51.112;0.984;2023-05-09T02:47:06;100383.71;;;12.11;100.00
42411;BME280;28056;51.112;0.984;2023-05-09T02:49:34;100382.55;;;12.12;100.00
42411;BME280;28056;51.112;0.984;2023-05-09T02:52:01;100381.03;;;12.50;100.00
42411;BME280;28056;51.112;0.984;2023-05-09T02:54:29;100376.56;;;11.82;100.00
42411;BME280;28056;51.112;0.984;2023-05-09T02:56:56;100370.78;;;11.96;100.00
42411;BME280;28056;51.112;0.984;2023-05-09T02:59:25;100368.48;;;11.44;100.00
42411;BME280;28056;51.112;0.984;2023-05-09T03:01:53;100374.79;;;11.35;100.00
42411;BME280;28056;51.112;0.984;2023-05-09T03:04:20;100365.41;;;12.25;100.00
42411;BME280;28056;51.112;0.984;2023-05-09T03:06:48;100360.87;;;11.74;100.00
42411;BME280;28056;51.112;0.984;2023-05-09T03:09:15;100356.66;;;12.17;100.00
42411;BME280;28056;51.112;0.984;2023-05-09T03:11:42;100365.99;;;12.16;100.00
42411;BME280;28056;51.112;0.984;2023-05-09T03:14:10;100363.44;;;12.55;100.00
42411;BME280;28056;51.112;0.984;2023-05-09T03:16:38;100353.15;;;12.40;100.00
42411;BME280;28056;51.112;0.984;2023-05-09T03:19:05;100347.67;;;12.62;98.13
42411;BME280;28056;51.112;0.984;2023-05-09T03:21:32;100359.66;;;13.15;96.91
42411;BME280;28056;51.112;0.984;2023-05-09T03:24:00;100349.08;;;12.53;96.81
42411;BME280;28056;51.112;0.984;2023-05-09T03:26:27;100352.63;;;13.03;97.19
42411;BME280;28056;51.112;0.984;2023-05-09T03:28:55;100344.34;;;12.36;98.73
42411;BME280;28056;51.112;0.984;2023-05-09T03:31:22;100341.88;;;12.43;100.00
42411;BME280;28056;51.112;0.984;2023-05-09T03:33:50;100334.72;;;12.83;96.89
42411;BME280;28056;51.112;0.984;2023-05-09T03:36:18;100335.63;;;12.29;99.03
42411;BME280;28056;51.112;0.984;2023-05-09T03:38:46;100333.02;;;12.46;95.88
42411;BME280;28056;51.112;0.984;2023-05-09T03:41:16;100327.73;;;12.27;98.66
42411;BME280;28056;51.112;0.984;2023-05-09T03:43:43;100322.63;;;12.31;99.12
42411;BME280;28056;51.112;0.984;2023-05-09T03:46:10;100322.21;;;12.44;98.22
42411;BME280;28056;51.112;0.984;2023-05-09T03:48:38;100316.51;;;12.04;98.82
42411;BME280;28056;51.112;0.984;2023-05-09T03:51:06;100317.42;;;12.32;99.36
42411;BME280;28056;51.112;0.984;2023-05-09T03:53:33;100309.30;;;12.46;96.39
42411;BME280;28056;51.112;0.984;2023-05-09T03:56:01;100311.37;;;12.57;96.49
42411;BME280;28056;51.112;0.984;2023-05-09T03:58:29;100313.38;;;13.10;93.99
42411;BME280;28056;51.112;0.984;2023-05-09T04:00:57;100310.81;;;13.50;91.09
42411;BME280;28056;51.112;0.984;2023-05-09T04:03:24;100308.20;;;13.20;90.58
42411;BME280;28056;51.112;0.984;2023-05-09T04:05:52;100302.30;;;12.44;92.88
42411;BME280;28056;51.112;0.984;2023-05-09T04:08:19;100294.03;;;13.56;90.02
42411;BME280;28056;51.112;0.984;2023-05-09T04:10:48;100292.15;;;13.15;91.58
42411;BME280;28056;51.112;0.984;2023-05-09T04:13:16;100295.18;;;13.19;92.25
42411;BME280;28056;51.112;0.984;2023-05-09T04:15:43;100288.77;;;13.48;88.89
42411;BME280;28056;51.112;0.984;2023-05-09T04:18:11;100293.74;;;13.01;90.64
42411;BME280;28056;51.112;0.984;2023-05-09T04:20:39;100291.90;;;13.28;89.02
42411;BME280;28056;51.112;0.984;2023-05-09T04:23:07;100290.57;;;13.92;87.53
42411;BME280;28056;51.112;0.984;2023-05-09T04:25:34;100285.49;;;14.29;84.38
42411;BME280;28056;51.112;0.984;2023-05-09T04:28:02;100281.17;;;13.65;86.06
42411;BME280;28056;51.112;0.984;2023-05-09T04:30:29;100277.52;;;14.14;84.45
42411;BME280;28056;51.112;0.984;2023-05-09T04:32:57;100273.26;;;14.34;83.10
42411;BME280;28056;51.112;0.984;2023-05-09T04:35:24;100272.38;;;14.04;84.43
42411;BME280;28056;51.112;0.984;2023-05-09T04:37:51;100273.61;;;14.27;82.90
42411;BME280;28056;51.112;0.984;2023-05-09T04:40:19;100271.99;;;14.43;81.73
42411;BME280;28056;51.112;0.984;2023-05-09T04:42:47;100273.09;;;13.36;85.71
42411;BME280;28056;51.112;0.984;2023-05-09T04:45:15;100273.42;;;14.39;84.26
42411;BME280;28056;51.112;0.984;2023-05-09T04:47:42;100279.34;;;14.37;82.94
42411;BME280;28056;51.112;0.984;2023-05-09T04:50:10;100276.85;;;14.42;83.43
42411;BME280;28056;51.112;0.984;2023-05-09T04:52:38;100276.13;;;14.88;80.59
42411;BME280;28056;51.112;0.984;2023-05-09T04:55:06;100270.63;;;14.88;80.54
42411;BME280;28056;51.112;0.984;2023-05-09T04:57:33;100270.79;;;14.83;80.45
42411;BME280;28056;51.112;0.984;2023-05-09T05:00:01;100273.46;;;14.72;79.60
42411;BME280;28056;51.112;0.984;2023-05-09T05:02:29;100273.73;;;15.22;78.25
42411;BME280;28056;51.112;0.984;2023-05-09T05:04:57;100270.67;;;15.29;77.94
42411;BME280;28056;51.112;0.984;2023-05-09T05:07:25;100269.34;;;15.28;77.62
42411;BME280;28056;51.112;0.984;2023-05-09T05:09:52;100274.83;;;14.78;80.81
42411;BME280;28056;51.112;0.984;2023-05-09T05:12:21;100273.16;;;14.90;78.16
42411;BME280;28056;51.112;0.984;2023-05-09T05:14:48;100267.66;;;14.17;80.23
42411;BME280;28056;51.112;0.984;2023-05-09T05:17:15;100264.49;;;14.96;79.34
42411;BME280;28056;51.112;0.984;2023-05-09T05:19:43;100258.45;;;14.79;80.54
42411;BME280;28056;51.112;0.984;2023-05-09T05:22:11;100256.35;;;14.78;79.18
42411;BME280;28056;51.112;0.984;2023-05-09T05:24:38;100253.55;;;14.38;82.04
42411;BME280;28056;51.112;0.984;2023-05-09T05:27:06;100252.60;;;13.88;83.18
42411;BME280;28056;51.112;0.984;2023-05-09T05:29:34;100253.90;;;14.52;81.92
42411;BME280;28056;51.112;0.984;2023-05-09T05:32:02;100253.19;;;15.22;78.28
42411;BME280;28056;51.112;0.984;2023-05-09T05:34:29;100253.02;;;14.52;80.73
42411;BME280;28056;51.112;0.984;2023-05-09T05:36:57;100255.90;;;15.13;78.68
42411;BME280;28056;51.112;0.984;2023-05-09T05:39:24;100255.51;;;14.04;82.64
42411;BME280;28056;51.112;0.984;2023-05-09T05:41:51;100257.48;;;14.77;80.11
42411;BME280;28056;51.112;0.984;2023-05-09T05:44:19;100250.97;;;13.52;84.77
42411;BME280;28056;51.112;0.984;2023-05-09T05:46:47;100249.67;;;13.97;84.32
42411;BME280;28056;51.112;0.984;2023-05-09T05:49:14;100252.81;;;14.88;80.80
42411;BME280;28056;51.112;0.984;2023-05-09T05:51:42;100252.28;;;14.87;79.70
42411;BME280;28056;51.112;0.984;2023-05-09T05:54:10;100248.43;;;14.64;81.31
42411;BME280;28056;51.112;0.984;2023-05-09T05:56:37;100247.64;;;13.90;83.93
42411;BME280;28056;51.112;0.984;2023-05-09T05:59:05;100247.14;;;13.20;88.65
42411;BME280;28056;51.112;0.984;2023-05-09T06:01:32;100246.95;;;14.10;86.72
42411;BME280;28056;51.112;0.984;2023-05-09T06:03:59;100245.26;;;13.87;86.15
42411;BME280;28056;51.112;0.984;2023-05-09T06:06:27;100243.98;;;13.74;86.19
42411;BME280;28056;51.112;0.984;2023-05-09T06:08:54;100241.81;;;14.79;83.18
42411;BME280;28056;51.112;0.984;2023-05-09T06:11:22;100242.22;;;14.99;81.79
42411;BME280;28056;51.112;0.984;2023-05-09T06:13:50;100238.29;;;14.73;82.84
42411;BME280;28056;51.112;0.984;2023-05-09T06:16:17;100231.69;;;15.63;80.73
42411;BME280;28056;51.112;0.984;2023-05-09T06:18:45;100224.58;;;15.44;80.31
42411;BME280;28056;51.112;0.984;2023-05-09T06:21:18;100219.57;;;15.73;78.86
42411;BME280;28056;51.112;0.984;2023-05-09T06:23:44;100219.56;;;15.03;79.75
42411;BME280;28056;51.112;0.984;2023-05-09T06:26:11;100218.90;;;15.33;79.59
42411;BME280;28056;51.112;0.984;2023-05-09T06:28:39;100216.32;;;15.63;78.16
42411;BME280;28056;51.112;0.984;2023-05-09T06:31:06;100217.02;;;14.93;80.16
42411;BME280;28056;51.112;0.984;2023-05-09T06:33:34;100216.44;;;14.87;81.87
42411;BME280;28056;51.112;0.984;2023-05-09T06:36:01;100213.60;;;14.35;85.28
42411;BME280;28056;51.112;0.984;2023-05-09T06:38:29;100210.13;;;15.18;80.88
42411;BME280;28056;51.112;0.984;2023-05-09T06:40:56;100215.12;;;14.68;81.78
42411;BME280;28056;51.112;0.984;2023-05-09T06:43:24;100219.07;;;14.59;84.08
42411;BME280;28056;51.112;0.984;2023-05-09T06:45:52;100218.24;;;14.05;87.23
42411;BME280;28056;51.112;0.984;2023-05-09T06:48:20;100221.84;;;14.67;87.02
42411;BME280;28056;51.112;0.984;2023-05-09T06:50:47;100226.04;;;14.52;85.06
42411;BME280;28056;51.112;0.984;2023-05-09T06:53:15;100225.73;;;13.73;88.38
42411;BME280;28056;51.112;0.984;2023-05-09T06:55:43;100225.71;;;14.70;85.05
42411;BME280;28056;51.112;0.984;2023-05-09T06:58:10;100226.91;;;14.47;83.05
42411;BME280;28056;51.112;0.984;2023-05-09T07:00:38;100227.45;;;13.74;86.45
42411;BME280;28056;51.112;0.984;2023-05-09T07:03:06;100230.58;;;14.41;83.82
42411;BME280;28056;51.112;0.984;2023-05-09T07:05:33;100229.26;;;13.61;88.84
42411;BME280;28056;51.112;0.984;2023-05-09T07:08:01;100230.40;;;12.87;91.44
42411;BME280;28056;51.112;0.984;2023-05-09T07:10:29;100224.38;;;13.65;92.16
42411;BME280;28056;51.112;0.984;2023-05-09T07:12:56;100222.76;;;14.39;87.84
42411;BME280;28056;51.112;0.984;2023-05-09T07:15:24;100219.09;;;13.93;87.20
42411;BME280;28056;51.112;0.984;2023-05-09T07:17:52;100219.29;;;13.43;90.87
42411;BME280;28056;51.112;0.984;2023-05-09T07:20:20;100218.01;;;14.59;85.20
42411;BME280;28056;51.112;0.984;2023-05-09T07:22:47;100213.93;;;14.52;85.84
42411;BME280;28056;51.112;0.984;2023-05-09T07:25:15;100215.20;;;13.59;89.53
42411;BME280;28056;51.112;0.984;2023-05-09T07:27:42;100218.74;;;14.68;88.37
42411;BME280;28056;51.112;0.984;2023-05-09T07:30:10;100222.18;;;14.91;87.24
42411;BME280;28056;51.112;0.984;2023-05-09T07:32:37;100223.40;;;14.33;85.72
42411;BME280;28056;51.112;0.984;2023-05-09T07:35:04;100221.61;;;14.15;87.41
42411;BME280;28056;51.112;0.984;2023-05-09T07:37:31;100220.75;;;15.51;82.45
42411;BME280;28056;51.112;0.984;2023-05-09T07:39:59;100225.44;;;14.36;85.55
42411;BME280;28056;51.112;0.984;2023-05-09T07:42:27;100227.86;;;13.82;88.65
42411;BME280;28056;51.112;0.984;2023-05-09T07:44:55;100227.88;;;13.56;91.20
42411;BME280;28056;51.112;0.984;2023-05-09T07:47:22;100227.15;;;13.94;90.06
42411;BME280;28056;51.112;0.984;2023-05-09T07:49:50;100229.55;;;13.52;90.55
42411;BME280;28056;51.112;0.984;2023-05-09T07:52:17;100230.63;;;12.70;94.74
42411;BME280;28056;51.112;0.984;2023-05-09T07:54:45;100227.23;;;12.58;97.12
42411;BME280;28056;51.112;0.984;2023-05-09T07:57:13;100225.30;;;12.79;96.66
42411;BME280;28056;51.112;0.984;2023-05-09T07:59:41;100228.42;;;13.39;94.45
42411;BME280;28056;51.112;0.984;2023-05-09T08:02:08;100228.18;;;13.00;94.10
42411;BME280;28056;51.112;0.984;2023-05-09T08:04:37;100226.31;;;12.99;93.90
42411;BME280;28056;51.112;0.984;2023-05-09T08:07:05;100232.21;;;12.43;95.90
42411;BME280;28056;51.112;0.984;2023-05-09T08:09:32;100227.89;;;12.36;95.29
42411;BME280;28056;51.112;0.984;2023-05-09T08:11:59;100228.65;;;13.21;93.10
42411;BME280;28056;51.112;0.984;2023-05-09T08:14:27;100231.00;;;12.43;95.02
42411;BME280;28056;51.112;0.984;2023-05-09T08:16:54;100230.34;;;12.31;96.41
42411;BME280;28056;51.112;0.984;2023-05-09T08:19:22;100230.46;;;12.54;97.29
42411;BME280;28056;51.112;0.984;2023-05-09T08:21:50;100233.12;;;12.41;98.44
42411;BME280;28056;51.112;0.984;2023-05-09T08:24:17;100227.63;;;12.82;94.94
42411;BME280;28056;51.112;0.984;2023-05-09T08:26:45;100231.27;;;12.35;95.17
42411;BME280;28056;51.112;0.984;2023-05-09T08:29:13;100233.63;;;12.43;96.65
42411;BME280;28056;51.112;0.984;2023-05-09T08:31:41;100229.67;;;13.47;92.41
42411;BME280;28056;51.112;0.984;2023-05-09T08:34:08;100228.49;;;13.25;90.81
42411;BME280;28056;51.112;0.984;2023-05-09T08:36:36;100226.83;;;13.04;94.76
42411;BME280;28056;51.112;0.984;2023-05-09T08:39:04;100224.20;;;13.45;92.48
42411;BME280;28056;51.112;0.984;2023-05-09T08:41:32;100225.87;;;13.15;94.79
42411;BME280;28056;51.112;0.984;2023-05-09T08:44:00;100220.10;;;13.32;95.71
42411;BME280;28056;51.112;0.984;2023-05-09T08:46:32;100217.70;;;13.03;95.87
42411;BME280;28056;51.112;0.984;2023-05-09T08:49:00;100216.39;;;12.90;95.13
42411;BME280;28056;51.112;0.984;2023-05-09T08:51:28;100217.23;;;13.13;95.83
42411;BME280;28056;51.112;0.984;2023-05-09T08:53:58;100216.43;;;13.23;90.73
42411;BME280;28056;51.112;0.984;2023-05-09T08:56:25;100212.50;;;12.95;92.31
42411;BME280;28056;51.112;0.984;2023-05-09T08:58:54;100206.72;;;12.43;94.03
42411;BME280;28056;51.112;0.984;2023-05-09T09:01:22;100204.56;;;12.65;94.98
42411;BME280;28056;51.112;0.984;2023-05-09T09:03:49;100205.08;;;12.08;96.22
42411;BME280;28056;51.112;0.984;2023-05-09T09:06:17;100203.75;;;12.75;97.69
42411;BME280;28056;51.112;0.984;2023-05-09T09:08:46;100208.82;;;12.26;98.23
42411;BME280;28056;51.112;0.984;2023-05-09T09:11:14;100210.93;;;12.61;97.42
42411;BME280;28056;51.112;0.984;2023-05-09T09:13:43;100204.66;;;12.30;96.53
42411;BME280;28056;51.112;0.984;2023-05-09T09:16:17;100207.39;;;12.48;97.39
42411;BME280;28056;51.112;0.984;2023-05-09T09:18:45;100203.62;;;12.19;98.34
42411;BME280;28056;51.112;0.984;2023-05-09T09:21:14;100202.97;;;12.46;99.09
42411;BME280;28056;51.112;0.984;2023-05-09T09:23:43;100196.93;;;13.52;95.90
42411;BME280;28056;51.112;0.984;2023-05-09T09:26:11;100195.18;;;13.22;96.46
42411;BME280;28056;51.112;0.984;2023-05-09T09:28:38;100191.35;;;13.73;95.00
42411;BME280;28056;51.112;0.984;2023-05-09T09:31:19;100196.04;;;13.25;92.52
42411;BME280;28056;51.112;0.984;2023-05-09T09:33:47;100192.01;;;12.62;95.94
42411;BME280;28056;51.112;0.984;2023-05-09T09:36:15;100185.57;;;12.71;96.11
42411;BME280;28056;51.112;0.984;2023-05-09T09:38:42;100179.59;;;12.83;94.33
42411;BME280;28056;51.112;0.984;2023-05-09T09:41:11;100179.74;;;12.90;98.71
42411;BME280;28056;51.112;0.984;2023-05-09T09:43:44;100184.29;;;12.84;97.59
42411;BME280;28056;51.112;0.984;2023-05-09T09:46:13;100187.35;;;12.80;96.89
42411;BME280;28056;51.112;0.984;2023-05-09T09:48:45;100179.55;;;13.77;94.16
42411;BME280;28056;51.112;0.984;2023-05-09T09:51:13;100176.62;;;13.44;91.05
42411;BME280;28056;51.112;0.984;2023-05-09T09:53:41;100176.83;;;14.29;89.67
42411;BME280;28056;51.112;0.984;2023-05-09T09:56:09;100173.63;;;14.26;83.89
42411;BME280;28056;51.112;0.984;2023-05-09T09:58:37;100169.21;;;14.72;80.72
42411;BME280;28056;51.112;0.984;2023-05-09T10:01:05;100166.14;;;15.07;77.40
42411;BME280;28056;51.112;0.984;2023-05-09T10:03:35;100169.74;;;15.58;79.76
42411;BME280;28056;51.112;0.984;2023-05-09T10:06:03;100165.78;;;16.51;74.45
42411;BME280;28056;51.112;0.984;2023-05-09T10:08:30;100160.84;;;16.21;72.48
42411;BME280;28056;51.112;0.984;2023-05-09T10:10:59;100157.13;;;16.78;72.27
42411;BME280;28056;51.112;0.984;2023-05-09T10:13:27;100162.61;;;15.72;75.62
42411;BME280;28056;51.112;0.984;2023-05-09T10:15:56;100164.92;;;16.96;73.48
42411;BME280;28056;51.112;0.984;2023-05-09T10:18:28;100158.81;;;17.66;73.04
42411;BME280;28056;51.112;0.984;2023-05-09T10:20:57;100162.61;;;16.40;69.96
42411;BME280;28056;51.112;0.984;2023-05-09T10:23:25;100158.35;;;18.32;66.87
42411;BME280;28056;51.112;0.984;2023-05-09T10:26:02;100155.95;;;18.07;62.30
42411;BME280;28056;51.112;0.984;2023-05-09T10:28:34;100156.41;;;17.42;67.85
42411;BME280;28056;51.112;0.984;2023-05-09T10:31:09;100160.46;;;16.52;73.43
42411;BME280;28056;51.112;0.984;2023-05-09T10:33:47;100158.69;;;16.39;69.63
42411;BME280;28056;51.112;0.984;2023-05-09T10:36:17;100152.53;;;17.69;69.17
42411;BME280;28056;51.112;0.984;2023-05-09T10:38:46;100154.34;;;17.29;66.29
42411;BME280;28056;51.112;0.984;2023-05-09T10:41:15;100158.38;;;16.69;70.31
42411;BME280;28056;51.112;0.984;2023-05-09T10:43:43;100155.07;;;17.40;64.10
42411;BME280;28056;51.112;0.984;2023-05-09T10:46:11;100155.68;;;17.46;68.19
42411;BME280;28056;51.112;0.984;2023-05-09T10:48:40;100160.57;;;16.15;69.17
42411;BME280;28056;51.112;0.984;2023-05-09T10:51:09;100155.52;;;16.12;69.39
42411;BME280;28056;51.112;0.984;2023-05-09T10:53:41;100149.74;;;18.24;65.87
42411;BME280;28056;51.112;0.984;2023-05-09T10:56:09;100150.26;;;17.89;65.22
42411;BME280;28056;51.112;0.984;2023-05-09T10:58:47;100145.99;;;18.92;61.72
42411;BME280;28056;51.112;0.984;2023-05-09T11:01:27;100141.36;;;19.05;57.23
42411;BME280;28056;51.112;0.984;2023-05-09T11:03:56;100137.64;;;18.12;60.58
42411;BME280;28056;51.112;0.984;2023-05-09T11:06:43;100135.63;;;18.40;62.37
42411;BME280;28056;51.112;0.984;2023-05-09T11:09:31;100134.97;;;17.58;64.49
42411;BME280;28056;51.112;0.984;2023-05-09T11:12:06;100129.40;;;18.06;60.78
42411;BME280;28056;51.112;0.984;2023-05-09T11:14:39;100124.37;;;16.72;63.00
42411;BME280;28056;51.112;0.984;2023-05-09T11:17:08;100127.23;;;16.63;62.53
42411;BME280;28056;51.112;0.984;2023-05-09T11:22:23;100124.17;;;17.95;61.31
42411;BME280;28056;51.112;0.984;2023-05-09T11:24:58;100120.39;;;17.74;58.38
42411;BME280;28056;51.112;0.984;2023-05-09T11:27:27;100119.81;;;17.83;60.49
42411;BME280;28056;51.112;0.984;2023-05-09T11:29:56;100112.79;;;19.39;51.66
42411;BME280;28056;51.112;0.984;2023-05-09T11:32:30;100114.41;;;18.77;56.78
42411;BME280;28056;51.112;0.984;2023-05-09T11:35:06;100110.38;;;18.13;56.97
42411;BME280;28056;51.112;0.984;2023-05-09T11:37:34;100109.57;;;18.49;59.06
42411;BME280;28056;51.112;0.984;2023-05-09T11:40:06;100107.43;;;19.35;64.69
42411;BME280;28056;51.112;0.984;2023-05-09T11:42:33;100106.09;;;19.14;63.66
42411;BME280;28056;51.112;0.984;2023-05-09T11:45:03;100105.07;;;17.87;66.92
42411;BME280;28056;51.112;0.984;2023-05-09T11:47:31;100103.25;;;18.30;67.98
42411;BME280;28056;51.112;0.984;2023-05-09T11:49:59;100096.47;;;17.57;68.33
42411;BME280;28056;51.112;0.984;2023-05-09T11:52:26;100097.63;;;18.66;66.43
42411;BME280;28056;51.112;0.984;2023-05-09T11:54:53;100094.76;;;18.69;66.52
42411;BME280;28056;51.112;0.984;2023-05-09T11:57:20;100088.00;;;19.62;62.95
42411;BME280;28056;51.112;0.984;2023-05-09T11:59:48;100088.38;;;19.21;62.56
42411;BME280;28056;51.112;0.984;2023-05-09T12:02:15;100090.98;;;18.52;63.50
42411;BME280;28056;51.112;0.984;2023-05-09T12:04:43;100092.63;;;19.77;68.14
42411;BME280;28056;51.112;0.984;2023-05-09T12:07:11;100094.52;;;19.52;60.49
42411;BME280;28056;51.112;0.984;2023-05-09T12:09:39;100092.56;;;19.45;57.23
42411;BME280;28056;51.112;0.984;2023-05-09T12:12:08;100090.05;;;19.99;55.76
42411;BME280;28056;51.112;0.984;2023-05-09T12:14:37;100087.84;;;19.03;62.61
42411;BME280;28056;51.112;0.984;2023-05-09T12:17:05;100089.01;;;17.55;66.04
42411;BME280;28056;51.112;0.984;2023-05-09T12:19:32;100088.10;;;17.73;65.20
42411;BME280;28056;51.112;0.984;2023-05-09T12:22:02;100083.19;;;17.72;63.30
42411;BME280;28056;51.112;0.984;2023-05-09T12:24:30;100088.87;;;18.30;63.86
42411;BME280;28056;51.112;0.984;2023-05-09T12:26:58;100084.61;;;18.09;65.20
42411;BME280;28056;51.112;0.984;2023-05-09T12:29:26;100079.28;;;16.96;69.49
42411;BME280;28056;51.112;0.984;2023-05-09T12:31:54;100080.00;;;17.17;68.22
42411;BME280;28056;51.112;0.984;2023-05-09T12:34:22;100079.28;;;16.98;67.67
42411;BME280;28056;51.112;0.984;2023-05-09T12:36:49;100084.16;;;17.25;70.66
42411;BME280;28056;51.112;0.984;2023-05-09T12:39:17;100082.89;;;17.03;74.64
42411;BME280;28056;51.112;0.984;2023-05-09T12:41:46;100086.33;;;17.76;72.76
42411;BME280;28056;51.112;0.984;2023-05-09T12:44:22;100080.82;;;17.99;73.16
42411;BME280;28056;51.112;0.984;2023-05-09T12:46:56;100080.98;;;16.38;77.09
42411;BME280;28056;51.112;0.984;2023-05-09T12:49:24;100081.95;;;15.50;79.73
42411;BME280;28056;51.112;0.984;2023-05-09T12:51:53;100080.30;;;16.17;80.84
42411;BME280;28056;51.112;0.984;2023-05-09T12:54:21;100077.67;;;16.45;82.50
42411;BME280;28056;51.112;0.984;2023-05-09T12:56:48;100074.56;;;15.08;87.54
42411;BME280;28056;51.112;0.984;2023-05-09T12:59:19;100070.99;;;16.57;84.99